sensor_id;sensor_type;location;lat;lon;timestamp;P1;durP1;ratioP1;P2;durP2;ratioP2
63259;SDS011;49390;51.380;0.098;2023-04-01T00:01:30;17.50;;;7.15;;
63259;SDS011;49390;51.380;0.098;2023-04-01T00:03:58;14.38;;;7.05;;
63259;SDS011;49390;51.380;0.098;2023-04-01T00:06:29;16.57;;;6.83;;
63259;SDS011;49390;51.380;0.098;2023-04-01T00:08:58;15.43;;;6.80;;
63259;SDS011;49390;51.380;0.098;2023-04-01T00:11:26;15.57;;;7.70;;
63259;SDS011;49390;51.380;0.098;2023-04-01T00:13:57;17.13;;;7.63;;
63259;SDS011;49390;51.380;0.098;2023-04-01T00:16:25;16.75;;;7.95;;
63259;SDS011;49390;51.380;0.098;2023-04-01T00:18:55;14.95;;;7.18;;
63259;SDS011;49390;51.380;0.098;2023-04-01T00:21:25;13.85;;;7.45;;
63259;SDS011;49390;51.380;0.098;2023-04-01T00:23:54;14.45;;;7.18;;
63259;SDS011;49390;51.380;0.098;2023-04-01T00:26:22;15.77;;;7.50;;
63259;SDS011;49390;51.380;0.098;2023-04-01T00:28:51;14.23;;;6.55;;
63259;SDS011;49390;51.380;0.098;2023-04-01T00:31:19;16.48;;;7.50;;
63259;SDS011;49390;51.380;0.098;2023-04-01T00:33:52;15.15;;;7.25;;
63259;SDS011;49390;51.380;0.098;2023-04-01T00:36:20;15.52;;;7.80;;
63259;SDS011;49390;51.380;0.098;2023-04-01T00:38:49;15.10;;;7.22;;
63259;SDS011;49390;51.380;0.098;2023-04-01T00:41:19;15.50;;;7.03;;
63259;SDS011;49390;51.380;0.098;2023-04-01T00:43:49;13.43;;;6.50;;
63259;SDS011;49390;51.380;0.098;2023-04-01T00:46:18;14.82;;;7.30;;
63259;SDS011;49390;51.380;0.098;2023-04-01T00:48:48;12.85;;;6.63;;
63259;SDS011;49390;51.380;0.098;2023-04-01T00:51:20;12.90;;;6.88;;
63259;SDS011;49390;51.380;0.098;2023-04-01T00:53:55;13.70;;;6.47;;
63259;SDS011;49390;51.380;0.098;2023-04-01T00:56:26;12.50;;;6.43;;
63259;SDS011;49390;51.380;0.098;2023-04-01T00:59:01;13.68;;;6.70;;
63259;SDS011;49390;51.380;0.098;2023-04-01T01:01:35;13.90;;;6.88;;
63259;SDS011;49390;51.380;0.098;2023-04-01T01:04:05;13.15;;;6.82;;
63259;SDS011;49390;51.380;0.098;2023-04-01T01:09:18;10.75;;;5.80;;
63259;SDS011;49390;51.380;0.098;2023-04-01T01:12:16;11.77;;;6.35;;
63259;SDS011;49390;51.380;0.098;2023-04-01T01:37:54;14.38;;;7.07;;
63259;SDS011;49390;51.380;0.098;2023-04-01T01:40:26;13.00;;;6.50;;
63259;SDS011;49390;51.380;0.098;2023-04-01T01:42:59;10.68;;;5.45;;
63259;SDS011;49390;51.380;0.098;2023-04-01T01:45:36;9.13;;;4.30;;
63259;SDS011;49390;51.380;0.098;2023-04-01T01:48:09;8.10;;;3.90;;
63259;SDS011;49390;51.380;0.098;2023-04-01T01:50:38;6.68;;;3.30;;
63259;SDS011;49390;51.380;0.098;2023-04-01T01:53:11;6.32;;;3.30;;
63259;SDS011;49390;51.380;0.098;2023-04-01T01:55:42;6.10;;;2.85;;
63259;SDS011;49390;51.380;0.098;2023-04-01T02:01:01;6.05;;;2.88;;
63259;SDS011;49390;51.380;0.098;2023-04-01T02:03:34;6.18;;;3.20;;
63259;SDS011;49390;51.380;0.098;2023-04-01T02:08:36;6.43;;;3.40;;
63259;SDS011;49390;51.380;0.098;2023-04-01T02:11:10;6.93;;;3.28;;
63259;SDS011;49390;51.380;0.098;2023-04-01T02:13:44;5.93;;;2.88;;
63259;SDS011;49390;51.380;0.098;2023-04-01T02:16:33;6.57;;;3.20;;
63259;SDS011;49390;51.380;0.098;2023-04-01T02:19:08;6.88;;;3.30;;
63259;SDS011;49390;51.380;0.098;2023-04-01T02:21:39;5.45;;;3.00;;
63259;SDS011;49390;51.380;0.098;2023-04-01T02:24:13;6.40;;;3.53;;
63259;SDS011;49390;51.380;0.098;2023-04-01T02:26:42;6.05;;;3.00;;
63259;SDS011;49390;51.380;0.098;2023-04-01T02:29:12;6.55;;;3.13;;
63259;SDS011;49390;51.380;0.098;2023-04-01T02:31:41;5.85;;;3.10;;
63259;SDS011;49390;51.380;0.098;2023-04-01T02:34:11;5.40;;;2.70;;
63259;SDS011;49390;51.380;0.098;2023-04-01T02:36:39;5.90;;;3.03;;
63259;SDS011;49390;51.380;0.098;2023-04-01T02:39:10;6.18;;;2.90;;
63259;SDS011;49390;51.380;0.098;2023-04-01T02:41:42;6.60;;;3.47;;
63259;SDS011;49390;51.380;0.098;2023-04-01T02:44:13;6.95;;;2.90;;
63259;SDS011;49390;51.380;0.098;2023-04-01T02:46:43;6.55;;;3.45;;
63259;SDS011;49390;51.380;0.098;2023-04-01T02:49:12;5.75;;;2.63;;
63259;SDS011;49390;51.380;0.098;2023-04-01T02:51:41;6.90;;;3.25;;
63259;SDS011;49390;51.380;0.098;2023-04-01T02:54:11;7.80;;;3.20;;
63259;SDS011;49390;51.380;0.098;2023-04-01T02:56:39;6.32;;;3.03;;
63259;SDS011;49390;51.380;0.098;2023-04-01T02:59:07;6.45;;;3.40;;
63259;SDS011;49390;51.380;0.098;2023-04-01T03:01:35;6.07;;;3.40;;
63259;SDS011;49390;51.380;0.098;2023-04-01T03:04:04;5.13;;;2.95;;
63259;SDS011;49390;51.380;0.098;2023-04-01T03:06:32;5.72;;;3.00;;
63259;SDS011;49390;51.380;0.098;2023-04-01T03:09:01;7.75;;;2.67;;
63259;SDS011;49390;51.380;0.098;2023-04-01T03:11:30;4.75;;;2.85;;
63259;SDS011;49390;51.380;0.098;2023-04-01T03:13:59;6.10;;;3.00;;
63259;SDS011;49390;51.380;0.098;2023-04-01T03:16:27;6.05;;;3.00;;
63259;SDS011;49390;51.380;0.098;2023-04-01T03:18:56;5.15;;;2.80;;
63259;SDS011;49390;51.380;0.098;2023-04-01T03:21:26;5.88;;;3.33;;
63259;SDS011;49390;51.380;0.098;2023-04-01T03:23:54;5.43;;;2.78;;
63259;SDS011;49390;51.380;0.098;2023-04-01T03:26:22;5.10;;;2.60;;
63259;SDS011;49390;51.380;0.098;2023-04-01T03:28:50;4.95;;;2.25;;
63259;SDS011;49390;51.380;0.098;2023-04-01T03:31:19;4.90;;;2.47;;
63259;SDS011;49390;51.380;0.098;2023-04-01T03:33:55;4.97;;;2.60;;
63259;SDS011;49390;51.380;0.098;2023-04-01T03:36:23;4.72;;;2.42;;
63259;SDS011;49390;51.380;0.098;2023-04-01T03:38:51;5.07;;;2.58;;
63259;SDS011;49390;51.380;0.098;2023-04-01T03:41:32;4.75;;;2.33;;
63259;SDS011;49390;51.380;0.098;2023-04-01T03:46:31;4.45;;;2.50;;
63259;SDS011;49390;51.380;0.098;2023-04-01T03:51:39;5.68;;;2.35;;
63259;SDS011;49390;51.380;0.098;2023-04-01T03:54:11;4.20;;;2.50;;
63259;SDS011;49390;51.380;0.098;2023-04-01T03:56:40;4.93;;;2.70;;
63259;SDS011;49390;51.380;0.098;2023-04-01T03:59:08;4.20;;;2.38;;
63259;SDS011;49390;51.380;0.098;2023-04-01T04:01:42;4.18;;;2.22;;
63259;SDS011;49390;51.380;0.098;2023-04-01T04:04:11;5.18;;;2.60;;
63259;SDS011;49390;51.380;0.098;2023-04-01T04:06:45;4.68;;;2.50;;
63259;SDS011;49390;51.380;0.098;2023-04-01T04:09:13;4.50;;;2.20;;
63259;SDS011;49390;51.380;0.098;2023-04-01T04:11:46;4.40;;;2.30;;
63259;SDS011;49390;51.380;0.098;2023-04-01T04:14:22;5.38;;;2.60;;
63259;SDS011;49390;51.380;0.098;2023-04-01T04:16:51;3.90;;;2.30;;
63259;SDS011;49390;51.380;0.098;2023-04-01T04:19:22;4.65;;;2.30;;
63259;SDS011;49390;51.380;0.098;2023-04-01T04:21:50;4.88;;;2.40;;
63259;SDS011;49390;51.380;0.098;2023-04-01T04:24:19;4.43;;;2.22;;
63259;SDS011;49390;51.380;0.098;2023-04-01T04:27:02;3.17;;;1.90;;
63259;SDS011;49390;51.380;0.098;2023-04-01T04:29:31;4.38;;;2.33;;
63259;SDS011;49390;51.380;0.098;2023-04-01T04:32:01;3.55;;;1.95;;
63259;SDS011;49390;51.380;0.098;2023-04-01T04:34:30;5.47;;;2.00;;
63259;SDS011;49390;51.380;0.098;2023-04-01T04:36:58;3.90;;;2.05;;
63259;SDS011;49390;51.380;0.098;2023-04-01T04:39:31;4.45;;;2.30;;
63259;SDS011;49390;51.380;0.098;2023-04-01T04:42:01;3.65;;;2.10;;
63259;SDS011;49390;51.380;0.098;2023-04-01T04:44:33;4.60;;;2.33;;
63259;SDS011;49390;51.380;0.098;2023-04-01T04:47:04;4.65;;;2.47;;
63259;SDS011;49390;51.380;0.098;2023-04-01T04:49:36;4.72;;;2.47;;
63259;SDS011;49390;51.380;0.098;2023-04-01T04:52:09;4.30;;;2.10;;
63259;SDS011;49390;51.380;0.098;2023-04-01T04:54:42;4.32;;;2.17;;
63259;SDS011;49390;51.380;0.098;2023-04-01T04:57:10;4.65;;;2.20;;
63259;SDS011;49390;51.380;0.098;2023-04-01T04:59:45;5.15;;;2.60;;
63259;SDS011;49390;51.380;0.098;2023-04-01T05:02:31;4.03;;;2.10;;
63259;SDS011;49390;51.380;0.098;2023-04-01T05:05:00;5.38;;;2.20;;
63259;SDS011;49390;51.380;0.098;2023-04-01T05:07:28;4.80;;;2.10;;
63259;SDS011;49390;51.380;0.098;2023-04-01T05:09:57;5.22;;;2.35;;
63259;SDS011;49390;51.380;0.098;2023-04-01T05:12:26;4.88;;;2.35;;
63259;SDS011;49390;51.380;0.098;2023-04-01T05:14:58;5.18;;;2.35;;
63259;SDS011;49390;51.380;0.098;2023-04-01T05:17:26;4.00;;;2.30;;
63259;SDS011;49390;51.380;0.098;2023-04-01T05:19:55;5.32;;;2.20;;
63259;SDS011;49390;51.380;0.098;2023-04-01T05:22:24;4.60;;;2.47;;
63259;SDS011;49390;51.380;0.098;2023-04-01T05:24:53;4.75;;;2.33;;
63259;SDS011;49390;51.380;0.098;2023-04-01T05:27:25;4.32;;;2.40;;
63259;SDS011;49390;51.380;0.098;2023-04-01T05:32:23;4.03;;;2.28;;
63259;SDS011;49390;51.380;0.098;2023-04-01T05:34:51;4.55;;;2.40;;
63259;SDS011;49390;51.380;0.098;2023-04-01T05:37:19;5.22;;;2.53;;
63259;SDS011;49390;51.380;0.098;2023-04-01T05:39:47;4.47;;;2.50;;
63259;SDS011;49390;51.380;0.098;2023-04-01T05:42:15;5.28;;;2.50;;
63259;SDS011;49390;51.380;0.098;2023-04-01T05:44:44;4.78;;;2.33;;
63259;SDS011;49390;51.380;0.098;2023-04-01T05:47:50;5.38;;;2.40;;
63259;SDS011;49390;51.380;0.098;2023-04-01T05:50:19;4.72;;;2.45;;
63259;SDS011;49390;51.380;0.098;2023-04-01T05:52:47;4.93;;;2.55;;
63259;SDS011;49390;51.380;0.098;2023-04-01T05:55:15;4.63;;;2.30;;
63259;SDS011;49390;51.380;0.098;2023-04-01T05:57:47;5.00;;;2.47;;
63259;SDS011;49390;51.380;0.098;2023-04-01T06:00:16;5.85;;;2.47;;
63259;SDS011;49390;51.380;0.098;2023-04-01T06:02:46;6.15;;;2.50;;
63259;SDS011;49390;51.380;0.098;2023-04-01T06:07:51;5.78;;;2.80;;
63259;SDS011;49390;51.380;0.098;2023-04-01T06:13:24;6.75;;;3.05;;
63259;SDS011;49390;51.380;0.098;2023-04-01T06:18:43;6.78;;;3.17;;
63259;SDS011;49390;51.380;0.098;2023-04-01T06:22:12;5.63;;;2.60;;
63259;SDS011;49390;51.380;0.098;2023-04-01T06:24:25;6.35;;;2.67;;
63259;SDS011;49390;51.380;0.098;2023-04-01T06:38:07;6.13;;;2.83;;
63259;SDS011;49390;51.380;0.098;2023-04-01T06:46:36;5.55;;;2.70;;
63259;SDS011;49390;51.380;0.098;2023-04-01T06:55:36;6.55;;;3.00;;
63259;SDS011;49390;51.380;0.098;2023-04-01T07:01:13;4.88;;;2.60;;
63259;SDS011;49390;51.380;0.098;2023-04-01T07:03:55;8.07;;;3.70;;
63259;SDS011;49390;51.380;0.098;2023-04-01T07:06:31;7.57;;;3.28;;
63259;SDS011;49390;51.380;0.098;2023-04-01T07:09:05;7.43;;;3.05;;
63259;SDS011;49390;51.380;0.098;2023-04-01T07:12:15;6.60;;;3.08;;
63259;SDS011;49390;51.380;0.098;2023-04-01T07:15:36;7.45;;;3.25;;
63259;SDS011;49390;51.380;0.098;2023-04-01T07:18:17;6.57;;;3.05;;
63259;SDS011;49390;51.380;0.098;2023-04-01T07:20:53;7.13;;;3.70;;
63259;SDS011;49390;51.380;0.098;2023-04-01T07:23:24;7.50;;;3.53;;
63259;SDS011;49390;51.380;0.098;2023-04-01T07:26:23;8.80;;;3.80;;
63259;SDS011;49390;51.380;0.098;2023-04-01T07:28:58;8.98;;;3.42;;
63259;SDS011;49390;51.380;0.098;2023-04-01T07:34:35;7.82;;;3.65;;
63259;SDS011;49390;51.380;0.098;2023-04-01T08:22:42;11.70;;;4.97;;
63259;SDS011;49390;51.380;0.098;2023-04-01T08:25:39;9.07;;;4.25;;
63259;SDS011;49390;51.380;0.098;2023-04-01T08:28:17;11.00;;;4.70;;
63259;SDS011;49390;51.380;0.098;2023-04-01T08:31:05;10.50;;;4.18;;
63259;SDS011;49390;51.380;0.098;2023-04-01T08:33:46;8.55;;;4.10;;
63259;SDS011;49390;51.380;0.098;2023-04-01T08:36:19;9.15;;;4.45;;
63259;SDS011;49390;51.380;0.098;2023-04-01T08:39:12;10.40;;;4.80;;
63259;SDS011;49390;51.380;0.098;2023-04-01T09:05:04;8.15;;;3.72;;
63259;SDS011;49390;51.380;0.098;2023-04-01T09:17:01;9.80;;;4.37;;
63259;SDS011;49390;51.380;0.098;2023-04-01T09:27:55;6.82;;;3.40;;
63259;SDS011;49390;51.380;0.098;2023-04-01T09:36:31;7.65;;;3.03;;
63259;SDS011;49390;51.380;0.098;2023-04-01T09:39:35;6.70;;;3.40;;
63259;SDS011;49390;51.380;0.098;2023-04-01T09:45:48;6.57;;;3.28;;
63259;SDS011;49390;51.380;0.098;2023-04-01T10:36:54;4.68;;;2.42;;
63259;SDS011;49390;51.380;0.098;2023-04-01T10:54:36;6.07;;;3.20;;
63259;SDS011;49390;51.380;0.098;2023-04-01T11:12:22;7.47;;;3.75;;
63259;SDS011;49390;51.380;0.098;2023-04-01T11:27:01;8.25;;;4.00;;
63259;SDS011;49390;51.380;0.098;2023-04-01T11:35:38;9.65;;;4.72;;
63259;SDS011;49390;51.380;0.098;2023-04-01T11:41:31;8.43;;;4.25;;
63259;SDS011;49390;51.380;0.098;2023-04-01T11:44:27;9.95;;;4.07;;
63259;SDS011;49390;51.380;0.098;2023-04-01T11:53:06;9.85;;;4.53;;
63259;SDS011;49390;51.380;0.098;2023-04-01T12:01:13;10.15;;;4.10;;
63259;SDS011;49390;51.380;0.098;2023-04-01T12:09:09;9.48;;;4.15;;
63259;SDS011;49390;51.380;0.098;2023-04-01T12:11:47;8.18;;;4.40;;
63259;SDS011;49390;51.380;0.098;2023-04-01T12:53:38;8.98;;;3.80;;
63259;SDS011;49390;51.380;0.098;2023-04-01T13:04:56;8.50;;;3.35;;
63259;SDS011;49390;51.380;0.098;2023-04-01T13:32:58;6.13;;;2.60;;
63259;SDS011;49390;51.380;0.098;2023-04-01T13:44:43;5.10;;;2.28;;
63259;SDS011;49390;51.380;0.098;2023-04-01T13:52:29;6.68;;;2.72;;
63259;SDS011;49390;51.380;0.098;2023-04-01T13:58:48;6.95;;;2.67;;
63259;SDS011;49390;51.380;0.098;2023-04-01T14:01:20;7.13;;;2.63;;
63259;SDS011;49390;51.380;0.098;2023-04-01T14:09:50;4.20;;;2.50;;
63259;SDS011;49390;51.380;0.098;2023-04-01T14:12:49;4.47;;;2.13;;
63259;SDS011;49390;51.380;0.098;2023-04-01T14:23:48;5.28;;;2.50;;
63259;SDS011;49390;51.380;0.098;2023-04-01T14:38:20;5.20;;;2.42;;
63259;SDS011;49390;51.380;0.098;2023-04-01T14:47:28;5.18;;;2.70;;
63259;SDS011;49390;51.380;0.098;2023-04-01T14:50:03;4.60;;;2.30;;
63259;SDS011;49390;51.380;0.098;2023-04-01T14:52:40;5.78;;;2.70;;
63259;SDS011;49390;51.380;0.098;2023-04-01T14:58:12;6.90;;;3.45;;
63259;SDS011;49390;51.380;0.098;2023-04-01T15:06:09;7.22;;;3.28;;
63259;SDS011;49390;51.380;0.098;2023-04-01T15:14:39;8.10;;;3.47;;
63259;SDS011;49390;51.380;0.098;2023-04-01T15:20:10;8.15;;;3.83;;
63259;SDS011;49390;51.380;0.098;2023-04-01T15:28:52;7.57;;;3.70;;
63259;SDS011;49390;51.380;0.098;2023-04-01T15:40:24;8.32;;;3.08;;
63259;SDS011;49390;51.380;0.098;2023-04-01T15:43:42;7.45;;;3.30;;
63259;SDS011;49390;51.380;0.098;2023-04-01T15:46:09;6.18;;;3.25;;
63259;SDS011;49390;51.380;0.098;2023-04-01T16:00:02;9.05;;;3.90;;
63259;SDS011;49390;51.380;0.098;2023-04-01T16:02:54;10.52;;;4.18;;
63259;SDS011;49390;51.380;0.098;2023-04-01T16:05:55;8.57;;;4.13;;
63259;SDS011;49390;51.380;0.098;2023-04-01T16:11:43;8.27;;;4.43;;
63259;SDS011;49390;51.380;0.098;2023-04-01T16:17:49;8.90;;;4.20;;
63259;SDS011;49390;51.380;0.098;2023-04-01T16:21:06;8.30;;;4.32;;
63259;SDS011;49390;51.380;0.098;2023-04-01T16:31:37;7.22;;;3.75;;
63259;SDS011;49390;51.380;0.098;2023-04-01T16:34:36;7.50;;;3.80;;
63259;SDS011;49390;51.380;0.098;2023-04-01T16:37:11;8.88;;;3.78;;
63259;SDS011;49390;51.380;0.098;2023-04-01T16:39:44;9.80;;;4.43;;
63259;SDS011;49390;51.380;0.098;2023-04-01T16:45:19;6.60;;;3.40;;
63259;SDS011;49390;51.380;0.098;2023-04-01T16:47:56;8.07;;;3.67;;
63259;SDS011;49390;51.380;0.098;2023-04-01T16:58:21;8.73;;;3.92;;
63259;SDS011;49390;51.380;0.098;2023-04-01T17:01:07;9.15;;;4.20;;
63259;SDS011;49390;51.380;0.098;2023-04-01T17:03:44;9.68;;;4.93;;
63259;SDS011;49390;51.380;0.098;2023-04-01T17:06:17;7.95;;;3.47;;
63259;SDS011;49390;51.380;0.098;2023-04-01T17:11:45;8.30;;;3.80;;
63259;SDS011;49390;51.380;0.098;2023-04-01T17:21:57;7.35;;;3.58;;
63259;SDS011;49390;51.380;0.098;2023-04-01T17:30:45;6.65;;;3.22;;
63259;SDS011;49390;51.380;0.098;2023-04-01T17:39:24;6.45;;;3.17;;
63259;SDS011;49390;51.380;0.098;2023-04-01T17:42:08;5.95;;;3.15;;
63259;SDS011;49390;51.380;0.098;2023-04-01T17:56:52;5.82;;;3.13;;
63259;SDS011;49390;51.380;0.098;2023-04-01T17:59:50;6.38;;;3.38;;
63259;SDS011;49390;51.380;0.098;2023-04-01T18:21:45;6.30;;;4.03;;
63259;SDS011;49390;51.380;0.098;2023-04-01T18:24:23;7.15;;;3.72;;
63259;SDS011;49390;51.380;0.098;2023-04-01T18:32:10;12.32;;;5.25;;
63259;SDS011;49390;51.380;0.098;2023-04-01T18:37:42;5.60;;;3.28;;
63259;SDS011;49390;51.380;0.098;2023-04-01T18:40:32;5.47;;;3.22;;
63259;SDS011;49390;51.380;0.098;2023-04-01T18:51:57;6.10;;;3.22;;
63259;SDS011;49390;51.380;0.098;2023-04-01T18:57:17;7.95;;;3.47;;
63259;SDS011;49390;51.380;0.098;2023-04-01T18:59:50;7.40;;;3.80;;
63259;SDS011;49390;51.380;0.098;2023-04-01T19:02:38;9.02;;;4.15;;
63259;SDS011;49390;51.380;0.098;2023-04-01T19:05:19;7.47;;;3.60;;
63259;SDS011;49390;51.380;0.098;2023-04-01T19:08:17;9.95;;;4.40;;
63259;SDS011;49390;51.380;0.098;2023-04-01T19:34:46;7.28;;;3.97;;
63259;SDS011;49390;51.380;0.098;2023-04-01T19:40:15;7.00;;;3.58;;
63259;SDS011;49390;51.380;0.098;2023-04-01T19:48:52;7.63;;;3.42;;
63259;SDS011;49390;51.380;0.098;2023-04-01T19:57:26;8.65;;;4.10;;
63259;SDS011;49390;51.380;0.098;2023-04-01T20:09:14;7.75;;;3.70;;
63259;SDS011;49390;51.380;0.098;2023-04-01T20:12:03;9.38;;;3.75;;
63259;SDS011;49390;51.380;0.098;2023-04-01T20:14:50;9.05;;;3.80;;
63259;SDS011;49390;51.380;0.098;2023-04-01T20:17:21;5.97;;;2.85;;
63259;SDS011;49390;51.380;0.098;2023-04-01T20:41:43;8.63;;;3.88;;
63259;SDS011;49390;51.380;0.098;2023-04-01T20:47:15;10.85;;;4.80;;
63259;SDS011;49390;51.380;0.098;2023-04-01T20:52:38;7.22;;;4.20;;
63259;SDS011;49390;51.380;0.098;2023-04-01T20:55:21;7.00;;;3.55;;
63259;SDS011;49390;51.380;0.098;2023-04-01T21:00:31;7.90;;;3.13;;
63259;SDS011;49390;51.380;0.098;2023-04-01T21:09:29;7.10;;;2.80;;
63259;SDS011;49390;51.380;0.098;2023-04-01T21:12:28;4.93;;;2.72;;
63259;SDS011;49390;51.380;0.098;2023-04-01T21:15:14;6.97;;;2.38;;
63259;SDS011;49390;51.380;0.098;2023-04-01T21:26:51;5.97;;;2.53;;
63259;SDS011;49390;51.380;0.098;2023-04-01T21:32:57;4.25;;;2.10;;
63259;SDS011;49390;51.380;0.098;2023-04-01T22:20:40;5.28;;;2.30;;
63259;SDS011;49390;51.380;0.098;2023-04-01T22:23:23;3.55;;;1.98;;
63259;SDS011;49390;51.380;0.098;2023-04-01T22:31:00;4.47;;;2.08;;
63259;SDS011;49390;51.380;0.098;2023-04-01T22:33:32;5.22;;;2.30;;
63259;SDS011;49390;51.380;0.098;2023-04-01T22:36:23;4.07;;;2.08;;
63259;SDS011;49390;51.380;0.098;2023-04-01T22:44:05;3.28;;;1.77;;
63259;SDS011;49390;51.380;0.098;2023-04-01T22:47:12;3.25;;;1.80;;
63259;SDS011;49390;51.380;0.098;2023-04-01T22:50:39;3.55;;;1.90;;
63259;SDS011;49390;51.380;0.098;2023-04-01T22:56:10;3.83;;;1.80;;
63259;SDS011;49390;51.380;0.098;2023-04-01T22:58:49;4.45;;;1.85;;
63259;SDS011;49390;51.380;0.098;2023-04-01T23:01:24;2.92;;;1.80;;
63259;SDS011;49390;51.380;0.098;2023-04-01T23:03:56;4.97;;;1.80;;
63259;SDS011;49390;51.380;0.098;2023-04-01T23:06:27;3.83;;;2.00;;
63259;SDS011;49390;51.380;0.098;2023-04-01T23:09:13;5.03;;;2.22;;
63259;SDS011;49390;51.380;0.098;2023-04-01T23:15:02;4.10;;;1.83;;
63259;SDS011;49390;51.380;0.098;2023-04-01T23:35:50;4.07;;;1.98;;
63259;SDS011;49390;51.380;0.098;2023-04-01T23:38:19;3.38;;;1.80;;
63259;SDS011;49390;51.380;0.098;2023-04-01T23:40:53;4.47;;;2.03;;
63259;SDS011;49390;51.380;0.098;2023-04-01T23:43:33;3.67;;;2.00;;
63259;SDS011;49390;51.380;0.098;2023-04-01T23:46:05;6.28;;;2.42;;
63259;SDS011;49390;51.380;0.098;2023-04-01T23:48:42;3.83;;;1.88;;
63259;SDS011;49390;51.380;0.098;2023-04-01T23:51:14;3.85;;;2.00;;
63259;SDS011;49390;51.380;0.098;2023-04-01T23:54:04;4.35;;;2.15;;
63259;SDS011;49390;51.380;0.098;2023-04-01T23:56:41;4.38;;;1.90;;
63259;SDS011;49390;51.380;0.098;2023-04-01T23:59:16;3.65;;;1.85;;
